createdAt,value
2022-08-01T00:00:13.582Z,45.35
2022-08-01T00:02:43.413Z,45.42
2022-08-01T00:05:13.114Z,45.33
2022-08-01T00:07:42.865Z,45.03
2022-08-01T00:10:14.558Z,44.74
2022-08-01T00:12:44.267Z,44.71
2022-08-01T00:15:15.283Z,44.75
2022-08-01T00:17:45.099Z,44.81
2022-08-01T00:20:15.943Z,44.86
2022-08-01T00:22:45.596Z,45.21
2022-08-01T00:25:15.288Z,45.49
2022-08-01T00:27:49.163Z,45.70
2022-08-01T00:30:21.186Z,45.16
2022-08-01T00:32:53.516Z,44.82
2022-08-01T00:35:23.225Z,44.67
2022-08-01T00:37:54.414Z,44.72
2022-08-01T00:40:24.165Z,44.78
2022-08-01T00:42:53.848Z,44.84
2022-08-01T00:45:23.505Z,44.86
2022-08-01T00:47:54.914Z,44.92
2022-08-01T00:50:24.848Z,45.00
2022-08-01T00:52:54.655Z,45.71
2022-08-01T00:55:24.589Z,45.49
2022-08-01T00:58:02.256Z,44.89
2022-08-01T01:00:27.460Z,44.82
2022-08-01T01:02:57.051Z,44.79
2022-08-01T01:05:26.756Z,44.85
2022-08-01T01:08:14.127Z,44.89
2022-08-01T01:10:52.761Z,44.96
2022-08-01T01:13:25.486Z,44.98
2022-08-01T01:16:00.640Z,45.06
2022-08-01T01:18:41.762Z,44.90
2022-08-01T01:21:24.794Z,45.61
2022-08-01T01:24:13.053Z,45.12
2022-08-01T01:27:08.322Z,44.85
2022-08-01T01:29:58.669Z,44.76
2022-08-01T01:32:28.593Z,44.80
2022-08-01T01:34:54.601Z,44.84
2022-08-01T01:37:26.067Z,44.90
2022-08-01T01:42:27.414Z,44.98
2022-08-01T01:44:57.311Z,45.00
2022-08-01T01:47:27.080Z,45.26
2022-08-01T01:49:56.900Z,45.69
2022-08-01T01:52:31.553Z,45.07
2022-08-01T01:55:02.104Z,44.85
2022-08-01T01:57:32.199Z,44.78
2022-08-01T02:00:05.008Z,44.80
2022-08-01T02:02:34.926Z,44.84
2022-08-01T02:05:04.878Z,44.83
2022-08-01T02:07:34.556Z,44.89
2022-08-01T02:10:07.877Z,44.92
2022-08-01T02:12:39.421Z,44.95
2022-08-01T02:15:12.649Z,44.82
2022-08-01T02:17:50.346Z,45.74
2022-08-01T02:20:20.068Z,45.12
2022-08-01T02:22:55.242Z,44.79
2022-08-01T02:25:36.729Z,44.71
2022-08-01T02:28:18.371Z,44.71
2022-08-01T02:30:50.095Z,44.77
2022-08-01T02:33:21.172Z,44.83
2022-08-01T02:36:32.202Z,44.88
2022-08-01T02:38:29.125Z,44.92
2022-08-01T02:41:20.836Z,44.90
2022-08-01T02:43:53.126Z,45.08
2022-08-01T02:46:34.818Z,45.88
2022-08-01T02:49:06.132Z,45.07
2022-08-01T02:51:36.022Z,44.80
2022-08-01T02:54:07.696Z,44.88
2022-08-01T02:56:38.836Z,44.78
2022-08-01T02:59:12.488Z,44.82
2022-08-01T03:01:44.555Z,44.84
2022-08-01T03:04:15.884Z,44.88
2022-08-01T03:06:45.472Z,44.91
2022-08-01T03:09:16.791Z,44.93
2022-08-01T03:11:46.919Z,44.98
2022-08-01T03:14:19.572Z,44.99
2022-08-01T03:16:52.363Z,45.03
2022-08-01T03:19:22.031Z,45.06
2022-08-01T03:21:55.895Z,45.07
2022-08-01T03:24:26.515Z,45.11
2022-08-01T03:26:56.133Z,45.14
2022-08-01T03:29:26.923Z,45.15
2022-08-01T03:31:59.336Z,45.16
2022-08-01T03:34:31.497Z,45.19
2022-08-01T03:37:16.598Z,45.19
2022-08-01T03:40:09.360Z,45.21
2022-08-01T03:42:41.570Z,45.21
2022-08-01T03:45:14.818Z,45.22
2022-08-01T03:47:45.643Z,45.24
2022-08-01T03:50:15.761Z,45.26
2022-08-01T03:52:47.842Z,45.29
2022-08-01T03:55:18.981Z,45.31
2022-08-01T03:57:50.304Z,45.35
2022-08-01T04:00:23.975Z,45.35
2022-08-01T04:02:53.707Z,45.38
2022-08-01T04:05:27.130Z,45.38
2022-08-01T04:08:03.983Z,45.40
2022-08-01T04:10:33.543Z,45.42
2022-08-01T04:13:03.641Z,45.46
2022-08-01T04:15:33.454Z,45.46
2022-08-01T04:18:03.245Z,45.49
2022-08-01T04:20:36.427Z,45.50
2022-08-01T04:23:07.882Z,45.51
2022-08-01T04:25:40.311Z,45.52
2022-08-01T04:28:14.144Z,45.51
2022-08-01T04:30:43.859Z,45.56
2022-08-01T04:33:13.708Z,45.56
2022-08-01T04:36:02.708Z,45.57
2022-08-01T04:38:18.966Z,45.59
2022-08-01T04:40:48.750Z,45.61
2022-08-01T04:43:20.955Z,45.63
2022-08-01T04:45:50.969Z,45.64
2022-08-01T04:48:26.525Z,45.67
2022-08-01T04:50:59.597Z,45.68
2022-08-01T04:53:33.169Z,45.69
2022-08-01T04:56:03.753Z,45.71
2022-08-01T04:58:33.748Z,45.73
2022-08-01T05:01:03.561Z,45.73
2022-08-01T05:03:38.812Z,45.75
2022-08-01T05:06:08.334Z,45.76
2022-08-01T05:08:39.363Z,45.77
2022-08-01T05:11:10.469Z,45.79
2022-08-01T05:13:53.676Z,45.81
2022-08-01T05:16:24.986Z,45.80
2022-08-01T05:18:54.876Z,45.84
2022-08-01T05:21:24.815Z,45.84
2022-08-01T05:23:54.483Z,45.87
2022-08-01T05:26:25.755Z,45.90
2022-08-01T05:28:56.407Z,45.88
2022-08-01T05:31:26.266Z,45.91
2022-08-01T05:33:56.103Z,45.92
2022-08-01T05:36:38.008Z,45.93
2022-08-01T05:39:08.837Z,45.95
2022-08-01T05:41:39.281Z,45.95
2022-08-01T05:44:13.643Z,45.98
2022-08-01T05:46:43.487Z,46.00
2022-08-01T05:49:13.253Z,46.03
2022-08-01T05:51:49.088Z,46.03
2022-08-01T05:54:21.445Z,46.04
2022-08-01T05:56:51.205Z,46.05
2022-08-01T05:59:22.323Z,46.08
2022-08-01T06:04:52.396Z,46.09
2022-08-01T06:07:24.908Z,46.12
2022-08-01T06:09:54.672Z,46.13
2022-08-01T06:12:26.709Z,46.16
2022-08-01T06:14:56.400Z,46.19
2022-08-01T06:17:29.025Z,46.18
2022-08-01T06:20:00.181Z,46.19
2022-08-01T06:22:30.666Z,46.22
2022-08-01T06:25:01.119Z,46.23
2022-08-01T06:27:31.579Z,46.26
2022-08-01T06:30:02.686Z,46.27
2022-08-01T06:32:32.842Z,46.28
2022-08-01T06:35:51.211Z,46.28
2022-08-01T06:38:21.444Z,46.35
2022-08-01T06:40:51.446Z,46.35
2022-08-01T06:43:21.205Z,46.35
2022-08-01T06:45:51.118Z,46.37
2022-08-01T06:48:20.976Z,46.37
2022-08-01T06:50:50.845Z,46.40
2022-08-01T06:53:20.436Z,46.41
2022-08-01T06:55:50.163Z,46.39
2022-08-01T06:58:31.719Z,46.43
2022-08-01T07:00:57.582Z,46.44
2022-08-01T07:03:25.980Z,46.47
2022-08-01T07:05:57.478Z,46.46
2022-08-01T07:08:36.716Z,46.48
2022-08-01T07:11:05.867Z,46.47
2022-08-01T07:13:44.166Z,46.49
2022-08-01T07:16:07.566Z,46.52
2022-08-01T07:18:37.303Z,46.52
2022-08-01T07:21:07.077Z,46.55
2022-08-01T07:23:38.274Z,46.56
2022-08-01T07:26:09.587Z,46.58
2022-08-01T07:28:44.073Z,46.59
2022-08-01T07:31:10.665Z,46.59
2022-08-01T07:33:47.624Z,46.62
2022-08-01T07:36:11.658Z,46.63
2022-08-01T07:38:41.492Z,46.64
2022-08-01T07:41:11.205Z,46.66
2022-08-01T07:43:50.535Z,46.68
2022-08-01T07:46:14.814Z,46.70
2022-08-01T07:48:44.671Z,46.71
2022-08-01T07:51:14.401Z,46.76
2022-08-01T07:53:45.221Z,46.73
2022-08-01T07:56:14.892Z,47.49
2022-08-01T07:58:44.625Z,47.37
2022-08-01T08:01:14.387Z,47.32
2022-08-01T08:03:44.087Z,47.28
2022-08-01T08:06:13.813Z,47.18
2022-08-01T08:08:45.308Z,47.04
2022-08-01T08:11:17.692Z,47.02
2022-08-01T08:13:47.507Z,46.96
2022-08-01T08:16:17.284Z,46.97
2022-08-01T08:18:48.775Z,46.95
2022-08-01T08:21:18.597Z,46.94
2022-08-01T08:23:52.400Z,46.94
2022-08-01T08:26:21.457Z,46.95
2022-08-01T08:28:51.259Z,46.94
2022-08-01T08:31:25.214Z,46.93
2022-08-01T08:33:52.552Z,46.94
2022-08-01T08:36:22.263Z,46.95
2022-08-01T08:38:53.731Z,46.95
2022-08-01T08:41:25.808Z,46.95
2022-08-01T08:43:55.391Z,46.96
2022-08-01T08:46:28.269Z,46.97
2022-08-01T08:48:59.485Z,46.97
2022-08-01T08:51:30.769Z,46.95
2022-08-01T08:54:00.780Z,46.98
2022-08-01T08:56:32.208Z,47.00
2022-08-01T08:59:02.957Z,46.99
2022-08-01T09:01:35.713Z,46.98
2022-08-01T09:04:06.261Z,47.00
2022-08-01T09:06:36.090Z,47.01
2022-08-01T09:09:06.420Z,47.01
2022-08-01T09:11:36.194Z,47.04
2022-08-01T09:14:11.614Z,47.03
2022-08-01T09:16:48.292Z,47.05
2022-08-01T09:19:39.156Z,47.04
2022-08-01T09:22:06.234Z,47.05
2022-08-01T09:24:36.199Z,47.04
2022-08-01T09:27:22.331Z,47.06
2022-08-01T09:30:01.345Z,47.05
2022-08-01T09:32:23.175Z,47.09
2022-08-01T09:34:54.502Z,47.09
2022-08-01T09:37:28.902Z,46.67
2022-08-01T09:40:00.836Z,47.51
2022-08-01T09:42:30.952Z,47.64
2022-08-01T09:45:02.237Z,47.68
2022-08-01T09:47:42.835Z,47.64
2022-08-01T09:50:14.290Z,47.60
2022-08-01T09:52:44.272Z,47.56
2022-08-01T09:55:13.829Z,47.45
2022-08-01T09:57:43.498Z,47.42
2022-08-01T10:00:35.589Z,47.39
2022-08-01T10:02:47.648Z,47.35
2022-08-01T10:05:21.101Z,47.36
2022-08-01T10:08:00.238Z,47.33
2022-08-01T10:10:31.347Z,47.29
2022-08-01T10:13:02.408Z,47.33
2022-08-01T10:15:36.944Z,47.29
2022-08-01T10:18:16.612Z,47.28
2022-08-01T10:20:41.108Z,47.26
2022-08-01T10:23:10.884Z,47.41
2022-08-01T10:25:44.107Z,47.41
2022-08-01T10:28:21.291Z,47.27
2022-08-01T10:30:49.822Z,47.28
2022-08-01T10:33:50.035Z,47.30
2022-08-01T10:35:50.780Z,47.29
2022-08-01T10:38:27.916Z,47.25
2022-08-01T10:40:58.100Z,47.24
2022-08-01T10:43:27.886Z,47.15
2022-08-01T10:45:57.553Z,47.15
2022-08-01T10:48:33.467Z,47.14
2022-08-01T10:51:17.828Z,47.14
2022-08-01T10:53:43.181Z,47.12
2022-08-01T10:56:16.664Z,47.15
2022-08-01T10:58:47.580Z,47.10
2022-08-01T11:01:31.690Z,47.09
2022-08-01T11:04:19.309Z,47.07
2022-08-01T11:06:52.646Z,47.05
2022-08-01T11:09:37.532Z,47.04
2022-08-01T11:12:13.159Z,47.05
2022-08-01T11:15:06.316Z,47.06
2022-08-01T11:18:01.883Z,47.09
2022-08-01T11:20:41.903Z,46.66
2022-08-01T11:23:14.439Z,47.79
2022-08-01T11:26:05.601Z,47.67
2022-08-01T11:28:30.251Z,47.41
2022-08-01T11:30:57.810Z,47.26
2022-08-01T11:33:49.559Z,47.10
2022-08-01T11:36:57.596Z,47.07
2022-08-01T11:39:04.077Z,47.04
2022-08-01T11:41:39.460Z,47.01
2022-08-01T11:44:15.222Z,47.00
2022-08-01T11:47:10.587Z,47.01
2022-08-01T11:49:49.973Z,47.08
2022-08-01T11:52:34.492Z,47.02
2022-08-01T11:55:12.578Z,46.97
2022-08-01T11:57:44.006Z,47.01
2022-08-01T12:00:18.664Z,47.01
2022-08-01T12:02:50.951Z,47.05
2022-08-01T12:05:24.886Z,47.04
2022-08-01T12:07:55.419Z,47.04
2022-08-01T12:10:30.648Z,47.04
2022-08-01T12:13:05.387Z,46.50
2022-08-01T12:15:38.944Z,46.35
2022-08-01T12:18:09.226Z,46.26
2022-08-01T12:20:54.291Z,46.30
2022-08-01T12:23:13.917Z,46.26
2022-08-01T12:25:45.107Z,45.42
2022-08-01T12:28:15.557Z,45.54
2022-08-01T12:30:45.304Z,45.46
2022-08-01T12:33:17.151Z,45.49
2022-08-01T12:35:47.025Z,45.59
2022-08-01T12:38:21.272Z,45.75
2022-08-01T12:40:53.548Z,45.78
2022-08-01T12:43:28.093Z,45.90
2022-08-01T12:46:01.373Z,46.04
2022-08-01T12:48:32.592Z,46.07
2022-08-01T12:51:03.997Z,45.54
2022-08-01T12:53:40.593Z,45.37
2022-08-01T12:56:09.685Z,45.47
2022-08-01T12:58:39.386Z,45.39
2022-08-01T13:01:11.170Z,45.39
2022-08-01T13:03:40.982Z,44.92
2022-08-01T13:06:17.624Z,44.19
2022-08-01T13:08:47.836Z,46.11
2022-08-01T13:11:19.703Z,46.27
2022-08-01T13:13:51.338Z,46.28
2022-08-01T13:16:30.314Z,46.04
2022-08-01T13:18:54.412Z,45.89
2022-08-01T13:21:28.746Z,46.18
2022-08-01T13:24:13.968Z,46.03
2022-08-01T13:26:50.857Z,45.84
2022-08-01T13:29:22.507Z,45.76
2022-08-01T13:31:52.289Z,45.02
2022-08-01T13:34:21.992Z,46.65
2022-08-01T13:36:51.744Z,46.60
2022-08-01T13:39:38.889Z,46.58
2022-08-01T13:42:10.556Z,46.52
2022-08-01T13:44:40.337Z,46.10
2022-08-01T13:47:15.128Z,46.87
2022-08-01T13:49:42.323Z,47.00
2022-08-01T13:52:12.270Z,46.54
2022-08-01T13:54:42.031Z,45.74
2022-08-01T13:57:11.646Z,45.85
2022-08-01T13:59:41.474Z,45.07
2022-08-01T14:02:12.416Z,46.47
2022-08-01T14:04:45.007Z,46.56
2022-08-01T14:07:15.329Z,46.54
2022-08-01T14:10:17.466Z,46.49
2022-08-01T14:12:18.428Z,46.41
2022-08-01T14:14:48.135Z,45.50
2022-08-01T14:17:20.750Z,47.03
2022-08-01T14:19:49.808Z,46.87
2022-08-01T14:22:26.905Z,46.25
2022-08-01T14:25:01.405Z,45.96
2022-08-01T14:27:27.863Z,46.10
2022-08-01T14:30:02.978Z,46.13
2022-08-01T14:32:31.610Z,45.92
2022-08-01T14:35:02.361Z,45.28
2022-08-01T14:37:37.858Z,46.81
2022-08-01T14:40:08.978Z,46.79
2022-08-01T14:42:43.232Z,46.70
2022-08-01T14:45:12.960Z,46.59
2022-08-01T14:47:43.103Z,46.48
2022-08-01T14:50:14.967Z,45.60
2022-08-01T14:52:44.817Z,46.79
2022-08-01T14:55:14.773Z,46.35
2022-08-01T14:57:47.162Z,46.05
2022-08-01T15:00:17.237Z,46.02
2022-08-01T15:02:50.455Z,46.02
2022-08-01T15:05:24.135Z,45.96
2022-08-01T15:07:53.996Z,46.02
2022-08-01T15:10:25.838Z,46.11
2022-08-01T15:12:55.427Z,45.57
2022-08-01T15:15:26.998Z,46.99
2022-08-01T15:17:56.647Z,46.92
2022-08-01T15:20:27.089Z,46.19
2022-08-01T15:22:59.286Z,45.88
2022-08-01T15:25:41.223Z,45.77
2022-08-01T15:28:00.652Z,45.91
2022-08-01T15:30:30.863Z,45.93
2022-08-01T15:33:00.740Z,46.58
2022-08-01T15:35:32.417Z,46.93
2022-08-01T15:38:03.877Z,46.85
2022-08-01T15:40:35.651Z,46.67
2022-08-01T15:43:05.660Z,46.61
2022-08-01T15:45:47.367Z,45.94
2022-08-01T15:48:10.420Z,46.76
2022-08-01T15:50:45.059Z,46.30
2022-08-01T15:53:14.968Z,46.14
2022-08-01T15:55:52.099Z,46.20
2022-08-01T15:58:17.883Z,46.07
2022-08-01T16:00:51.441Z,46.12
2022-08-01T16:03:20.682Z,46.12
2022-08-01T16:05:51.320Z,46.17
2022-08-01T16:08:20.962Z,46.95
2022-08-01T16:10:50.564Z,46.33
2022-08-01T16:13:25.566Z,46.06
2022-08-01T16:16:01.223Z,45.81
2022-08-01T16:18:53.917Z,45.90
2022-08-01T16:21:04.715Z,45.91
2022-08-01T16:23:34.962Z,45.89
2022-08-01T16:26:04.992Z,46.29
2022-08-01T16:28:37.782Z,46.92
2022-08-01T16:31:12.649Z,46.54
2022-08-01T16:33:49.768Z,45.96
2022-08-01T16:36:16.609Z,45.75
2022-08-01T16:38:46.086Z,45.69
2022-08-01T16:41:19.950Z,45.73
2022-08-01T16:43:54.414Z,45.65
2022-08-01T16:46:22.294Z,46.70
2022-08-01T16:48:52.296Z,46.84
2022-08-01T16:51:22.141Z,46.72
2022-08-01T16:53:51.854Z,46.21
2022-08-01T16:56:22.078Z,45.76
2022-08-01T16:58:52.035Z,45.60
2022-08-01T17:01:58.717Z,46.52
2022-08-01T17:03:56.788Z,46.77
2022-08-01T17:06:24.286Z,46.55
2022-08-01T17:08:53.857Z,46.47
2022-08-01T17:11:23.739Z,46.43
2022-08-01T17:13:53.555Z,46.44
2022-08-01T17:16:23.637Z,45.65
2022-08-01T17:18:53.383Z,46.70
2022-08-01T17:21:23.321Z,46.20
2022-08-01T17:23:53.048Z,45.64
2022-08-01T17:26:22.742Z,45.32
2022-08-01T17:28:52.489Z,44.99
2022-08-01T17:31:22.168Z,44.79
2022-08-01T17:33:54.967Z,44.55
2022-08-01T17:36:23.536Z,44.13
2022-08-01T17:38:53.710Z,43.96
2022-08-01T17:41:23.276Z,43.68
2022-08-01T17:43:53.103Z,44.59
2022-08-01T17:46:23.948Z,44.04
2022-08-01T17:48:55.831Z,43.71
2022-08-01T17:51:28.491Z,43.50
2022-08-01T17:54:01.271Z,43.45
2022-08-01T17:56:39.245Z,43.56
2022-08-01T17:59:08.558Z,44.10
2022-08-01T18:01:39.537Z,44.38
2022-08-01T18:04:12.451Z,44.37
2022-08-01T18:06:58.160Z,44.10
2022-08-01T18:09:18.409Z,43.89
2022-08-01T18:11:49.890Z,44.92
2022-08-01T18:14:19.780Z,44.67
2022-08-01T18:16:49.384Z,44.18
2022-08-01T18:19:25.540Z,43.82
2022-08-01T18:21:55.371Z,43.74
2022-08-01T18:24:32.041Z,44.46
2022-08-01T18:27:08.807Z,46.10
2022-08-01T18:29:47.472Z,45.67
2022-08-01T18:32:15.817Z,45.33
2022-08-01T18:34:46.215Z,45.16
2022-08-01T18:37:17.372Z,44.93
2022-08-01T18:39:57.301Z,46.82
2022-08-01T18:42:27.112Z,46.54
2022-08-01T18:44:57.020Z,46.17
2022-08-01T18:47:26.734Z,46.12
2022-08-01T18:49:56.523Z,46.07
2022-08-01T18:52:28.391Z,47.41
2022-08-01T18:55:01.759Z,46.64
2022-08-01T18:57:31.138Z,46.13
2022-08-01T19:00:15.826Z,45.39
2022-08-01T19:02:39.609Z,44.95
2022-08-01T19:05:10.385Z,44.74
2022-08-01T19:08:05.592Z,45.86
2022-08-01T19:10:12.933Z,45.88
2022-08-01T19:12:44.362Z,45.49
2022-08-01T19:15:16.000Z,45.35
2022-08-01T19:17:45.682Z,45.38
2022-08-01T19:20:15.408Z,45.73
2022-08-01T19:22:45.365Z,45.59
2022-08-01T19:25:16.845Z,45.14
2022-08-01T19:27:48.868Z,44.88
2022-08-01T19:30:19.980Z,44.55
2022-08-01T19:32:49.837Z,44.37
2022-08-01T19:35:22.580Z,44.13
2022-08-01T19:37:54.549Z,44.14
2022-08-01T19:40:26.969Z,44.26
2022-08-01T19:42:56.170Z,44.75
2022-08-01T19:45:26.520Z,44.92
2022-08-01T19:47:57.919Z,45.00
2022-08-01T19:50:28.867Z,44.79
2022-08-01T19:52:59.761Z,44.53
2022-08-01T19:55:39.429Z,44.05
2022-08-01T19:58:31.379Z,45.21
2022-08-01T20:00:47.438Z,45.01
2022-08-01T20:03:19.284Z,44.55
2022-08-01T20:05:51.970Z,44.26
2022-08-01T20:08:22.723Z,44.38
2022-08-01T20:10:52.498Z,44.38
2022-08-01T20:13:22.516Z,44.54
2022-08-01T20:15:52.302Z,44.55
2022-08-01T20:18:22.582Z,44.38
2022-08-01T20:20:52.590Z,44.15
2022-08-01T20:23:25.338Z,43.92
2022-08-01T20:26:01.253Z,44.83
2022-08-01T20:28:31.769Z,44.71
2022-08-01T20:31:05.710Z,44.34
2022-08-01T20:33:35.662Z,44.19
2022-08-01T20:36:05.933Z,44.24
2022-08-01T20:38:37.807Z,44.46
2022-08-01T20:41:07.654Z,44.46
2022-08-01T20:43:38.186Z,44.34
2022-08-01T20:46:09.662Z,45.63
2022-08-01T20:48:39.709Z,45.11
2022-08-01T20:51:18.724Z,44.45
2022-08-01T20:53:51.039Z,44.07
2022-08-01T20:56:29.394Z,43.80
2022-08-01T20:59:39.513Z,44.00
2022-08-01T21:02:10.252Z,44.02
2022-08-01T21:05:00.723Z,44.00
2022-08-01T21:07:36.619Z,44.31
2022-08-01T21:10:13.564Z,44.32
2022-08-01T21:12:45.588Z,44.17
2022-08-01T21:15:25.256Z,44.01
2022-08-01T21:18:09.282Z,43.81
2022-08-01T21:20:47.882Z,43.67
2022-08-01T21:23:47.349Z,43.68
2022-08-01T21:26:17.329Z,43.79
2022-08-01T21:28:53.502Z,43.83
2022-08-01T21:31:19.916Z,43.82
2022-08-01T21:34:02.353Z,44.14
2022-08-01T21:36:21.696Z,44.12
2022-08-01T21:38:53.077Z,43.95
2022-08-01T21:42:04.021Z,43.87
2022-08-01T21:43:55.635Z,43.67
2022-08-01T21:46:26.896Z,43.71
2022-08-01T21:48:56.898Z,43.76
2022-08-01T21:51:51.964Z,43.78
2022-08-01T21:54:42.486Z,44.02
2022-08-01T21:57:33.294Z,44.07
2022-08-01T22:00:11.549Z,43.96
2022-08-01T22:02:52.103Z,43.81
2022-08-01T22:05:20.026Z,43.66
2022-08-01T22:07:57.533Z,43.52
2022-08-01T22:10:27.256Z,43.44
2022-08-01T22:12:56.865Z,43.46
2022-08-01T22:15:45.111Z,43.54
2022-08-01T22:17:59.576Z,43.54
2022-08-01T22:20:29.918Z,43.54
2022-08-01T22:22:59.789Z,43.58
2022-08-01T22:25:30.156Z,43.72
2022-08-01T22:28:08.118Z,44.10
2022-08-01T22:30:32.939Z,45.61
2022-08-01T22:33:15.254Z,45.24
2022-08-01T22:35:36.139Z,45.25
2022-08-01T22:38:07.619Z,45.27
2022-08-01T22:40:39.570Z,45.43
2022-08-01T22:43:12.029Z,45.68
2022-08-01T22:45:59.413Z,45.63
2022-08-01T22:48:36.527Z,45.68
2022-08-01T22:51:25.747Z,45.17
2022-08-01T22:54:10.573Z,44.80
2022-08-01T22:56:42.392Z,44.64
2022-08-01T22:59:17.013Z,45.19
2022-08-01T23:01:48.563Z,45.33
2022-08-01T23:04:34.080Z,45.35
2022-08-01T23:07:06.024Z,45.34
2022-08-01T23:09:39.422Z,45.06
2022-08-01T23:12:10.452Z,45.05
2022-08-01T23:14:40.394Z,44.88
2022-08-01T23:17:27.689Z,44.55
2022-08-01T23:19:41.838Z,44.39
2022-08-01T23:22:11.954Z,44.51
2022-08-01T23:24:42.650Z,44.87
2022-08-01T23:27:54.229Z,45.03
2022-08-01T23:30:03.103Z,44.85
2022-08-01T23:32:33.915Z,44.78
2022-08-01T23:35:08.934Z,44.45
2022-08-01T23:37:47.436Z,44.22
2022-08-01T23:40:17.043Z,44.10
2022-08-01T23:42:46.693Z,43.93
2022-08-01T23:45:16.342Z,43.83
2022-08-01T23:47:45.895Z,43.83
2022-08-01T23:50:15.630Z,44.06
2022-08-01T23:52:48.365Z,44.41
2022-08-01T23:55:16.684Z,44.64
2022-08-01T23:57:46.502Z,44.55
